createdAt,value
2022-10-13T00:01:22.119Z,87.30
2022-10-13T00:03:50.332Z,87.40
2022-10-13T00:06:24.603Z,87.60
2022-10-13T00:08:56.771Z,87.70
2022-10-13T00:11:36.605Z,87.90
2022-10-13T00:14:13.623Z,88.00
2022-10-13T00:16:45.951Z,87.80
2022-10-13T00:19:16.448Z,87.90
2022-10-13T00:21:46.531Z,87.90
2022-10-13T00:24:13.604Z,88.00
2022-10-13T00:26:44.184Z,87.90
2022-10-13T00:29:14.682Z,88.00
2022-10-13T00:31:44.346Z,88.10
2022-10-13T00:34:18.923Z,88.10
2022-10-13T00:36:46.334Z,88.20
2022-10-13T00:39:17.871Z,88.40
2022-10-13T00:41:51.629Z,88.30
2022-10-13T00:44:56.491Z,88.30
2022-10-13T00:47:25.701Z,88.50
2022-10-13T00:50:06.878Z,88.60
2022-10-13T00:52:42.751Z,88.80
2022-10-13T00:55:13.101Z,88.80
2022-10-13T00:57:47.863Z,89.10
2022-10-13T01:00:24.254Z,89.10
2022-10-13T01:02:55.339Z,89.00
2022-10-13T01:05:25.014Z,89.10
2022-10-13T01:07:54.367Z,89.00
2022-10-13T01:10:52.017Z,89.30
2022-10-13T01:14:04.785Z,89.30
2022-10-13T01:17:16.484Z,89.30
2022-10-13T01:19:53.586Z,89.30
2022-10-13T01:22:48.461Z,89.30
2022-10-13T01:26:03.604Z,89.20
2022-10-13T01:28:34.025Z,89.30
2022-10-13T01:31:35.277Z,89.20
2022-10-13T01:34:47.812Z,89.50
2022-10-13T01:37:34.260Z,89.70
2022-10-13T01:40:15.614Z,90.10
2022-10-13T01:42:48.498Z,90.00
2022-10-13T01:45:59.926Z,90.10
2022-10-13T01:48:29.300Z,90.10
2022-10-13T01:51:01.480Z,90.20
2022-10-13T01:53:34.736Z,90.20
2022-10-13T01:56:11.334Z,90.30
2022-10-13T01:58:40.600Z,90.30
2022-10-13T02:01:20.006Z,90.50
2022-10-13T02:04:10.033Z,90.50
2022-10-13T02:06:53.231Z,90.60
2022-10-13T02:09:43.557Z,90.60
2022-10-13T02:12:26.409Z,90.50
2022-10-13T02:14:57.687Z,90.50
2022-10-13T02:17:27.356Z,90.50
2022-10-13T02:19:56.684Z,90.40
2022-10-13T02:22:33.829Z,90.60
2022-10-13T02:25:10.460Z,90.50
2022-10-13T02:27:43.809Z,90.40
2022-10-13T02:30:21.376Z,90.40
2022-10-13T02:32:48.925Z,90.30
2022-10-13T02:35:18.809Z,90.40
2022-10-13T02:37:46.180Z,90.40
2022-10-13T02:40:14.234Z,90.50
2022-10-13T02:42:44.622Z,90.60
2022-10-13T02:45:12.790Z,90.60
2022-10-13T02:47:49.564Z,90.50
2022-10-13T02:50:25.814Z,90.60
2022-10-13T02:52:53.538Z,90.50
2022-10-13T02:55:28.908Z,90.60
2022-10-13T02:57:59.546Z,90.60
2022-10-13T03:00:32.871Z,90.80
2022-10-13T03:03:05.552Z,90.70
2022-10-13T03:05:35.693Z,90.80
2022-10-13T03:08:03.099Z,90.80
2022-10-13T03:10:39.548Z,90.80
2022-10-13T03:13:09.839Z,90.90
2022-10-13T03:15:45.114Z,91.10
2022-10-13T03:18:14.171Z,91.20
2022-10-13T03:20:49.246Z,91.20
2022-10-13T03:23:19.456Z,91.30
2022-10-13T03:25:49.654Z,91.40
2022-10-13T03:28:17.486Z,91.40
2022-10-13T03:30:47.754Z,91.50
2022-10-13T03:33:18.573Z,91.50
2022-10-13T03:35:50.863Z,91.50
2022-10-13T03:38:19.162Z,91.60
2022-10-13T03:40:46.427Z,91.50
2022-10-13T03:43:19.600Z,91.60
2022-10-13T03:46:01.100Z,91.70
2022-10-13T03:48:37.569Z,91.70
2022-10-13T03:51:06.708Z,91.80
2022-10-13T03:53:34.813Z,91.80
2022-10-13T03:56:03.110Z,91.80
2022-10-13T03:58:31.067Z,91.70
2022-10-13T04:01:06.281Z,91.70
2022-10-13T04:03:40.569Z,91.60
2022-10-13T04:06:20.848Z,91.80
2022-10-13T04:08:48.864Z,92.00
2022-10-13T04:11:19.665Z,92.00
2022-10-13T04:14:15.786Z,92.00
2022-10-13T04:16:46.938Z,92.10
2022-10-13T04:19:16.464Z,92.20
2022-10-13T04:21:52.914Z,92.20
2022-10-13T04:24:29.790Z,92.20
2022-10-13T04:26:57.554Z,92.30
2022-10-13T04:29:36.602Z,92.20
2022-10-13T04:32:06.713Z,92.30
2022-10-13T04:34:39.280Z,92.30
2022-10-13T04:37:10.008Z,92.30
2022-10-13T04:39:40.866Z,92.40
2022-10-13T04:42:09.226Z,92.50
2022-10-13T04:44:39.742Z,92.60
2022-10-13T04:47:15.414Z,92.60
2022-10-13T04:50:01.405Z,92.60
2022-10-13T04:52:32.728Z,92.70
2022-10-13T04:55:03.163Z,92.60
2022-10-13T04:57:37.348Z,92.60
2022-10-13T05:00:11.867Z,92.70
2022-10-13T05:02:42.698Z,92.70
2022-10-13T05:05:12.167Z,92.70
2022-10-13T05:07:42.362Z,92.80
2022-10-13T05:10:18.075Z,92.70
2022-10-13T05:12:48.058Z,92.70
2022-10-13T05:15:15.563Z,92.70
2022-10-13T05:17:44.505Z,92.90
2022-10-13T05:20:13.349Z,92.70
2022-10-13T05:22:46.194Z,92.80
2022-10-13T05:25:13.814Z,92.70
2022-10-13T05:27:48.962Z,92.60
2022-10-13T05:30:19.369Z,92.60
2022-10-13T05:32:53.993Z,92.60
2022-10-13T05:35:25.195Z,92.70
2022-10-13T05:38:13.338Z,92.60
2022-10-13T05:40:55.403Z,92.60
2022-10-13T05:46:30.278Z,92.30
2022-10-13T05:49:06.916Z,92.30
2022-10-13T05:51:54.800Z,92.20
2022-10-13T05:57:39.750Z,91.90
2022-10-13T06:00:49.959Z,91.70
2022-10-13T06:03:40.262Z,91.30
2022-10-13T06:09:49.067Z,90.50
2022-10-13T06:12:27.103Z,90.20
2022-10-13T06:15:01.935Z,90.30
2022-10-13T06:18:08.332Z,90.20
2022-10-13T06:20:40.276Z,90.00
2022-10-13T06:23:23.276Z,89.70
2022-10-13T06:26:00.970Z,88.70
2022-10-13T06:28:53.402Z,88.10
2022-10-13T06:31:34.252Z,88.10
2022-10-13T06:34:09.746Z,87.10
2022-10-13T06:36:48.870Z,85.90
2022-10-13T06:39:23.401Z,84.70
2022-10-13T06:43:05.849Z,84.20
2022-10-13T06:45:37.696Z,83.50
2022-10-13T06:48:12.119Z,81.50
2022-10-13T06:50:43.079Z,81.10
2022-10-13T06:53:16.521Z,80.90
2022-10-13T06:56:04.880Z,80.80
2022-10-13T06:58:35.145Z,80.40
2022-10-13T07:01:41.940Z,80.90
2022-10-13T07:04:25.958Z,81.40
2022-10-13T07:06:54.223Z,81.50
2022-10-13T07:09:32.887Z,81.50
2022-10-13T07:12:17.287Z,81.60
2022-10-13T07:15:08.832Z,81.50
2022-10-13T07:17:48.351Z,81.40
2022-10-13T07:20:22.444Z,81.30
2022-10-13T07:23:18.187Z,81.40
2022-10-13T07:25:59.570Z,81.60
2022-10-13T07:31:22.522Z,81.80
2022-10-13T07:33:51.637Z,82.20
2022-10-13T07:36:26.767Z,82.00
2022-10-13T07:38:58.699Z,81.90
2022-10-13T07:41:26.598Z,82.10
2022-10-13T07:44:01.074Z,82.20
2022-10-13T07:46:34.199Z,81.70
2022-10-13T07:49:06.413Z,81.70
2022-10-13T07:51:42.967Z,81.50
2022-10-13T07:54:14.170Z,81.20
2022-10-13T07:56:46.293Z,81.30
2022-10-13T07:59:16.349Z,81.60
2022-10-13T08:01:51.605Z,81.50
2022-10-13T08:04:19.361Z,81.80
2022-10-13T08:06:52.653Z,82.50
2022-10-13T08:09:26.024Z,82.90
2022-10-13T08:12:10.644Z,83.10
2022-10-13T08:14:39.089Z,83.30
2022-10-13T08:17:07.062Z,83.70
2022-10-13T08:19:58.401Z,83.80
2022-10-13T08:22:31.683Z,83.90
2022-10-13T08:25:02.952Z,83.90
2022-10-13T08:27:50.994Z,84.00
2022-10-13T08:30:24.670Z,84.50
2022-10-13T08:33:02.048Z,84.70
2022-10-13T08:35:34.045Z,84.80
2022-10-13T08:38:08.061Z,85.10
2022-10-13T08:40:39.557Z,85.70
2022-10-13T08:43:17.674Z,85.80
2022-10-13T08:46:26.079Z,85.40
2022-10-13T08:49:00.222Z,84.70
2022-10-13T08:52:46.169Z,84.00
2022-10-13T08:54:43.940Z,83.70
2022-10-13T08:57:21.996Z,84.10
2022-10-13T09:06:23.747Z,83.40
2022-10-13T09:12:13.168Z,83.10
2022-10-13T09:14:50.209Z,83.30
2022-10-13T09:17:23.686Z,83.10
2022-10-13T09:20:31.134Z,82.50
2022-10-13T09:23:18.287Z,81.40
2022-10-13T09:26:05.589Z,81.00
2022-10-13T09:28:43.526Z,81.50
2022-10-13T09:31:47.156Z,81.50
2022-10-13T09:37:48.572Z,80.90
2022-10-13T09:40:32.927Z,80.60
2022-10-13T09:43:22.003Z,79.70
2022-10-13T09:45:49.949Z,78.40
2022-10-13T09:48:55.732Z,78.20
2022-10-13T09:51:47.625Z,77.70
2022-10-13T09:54:36.279Z,76.40
2022-10-13T09:57:26.184Z,74.70
2022-10-13T10:00:18.431Z,73.20
2022-10-13T10:02:58.347Z,71.70
2022-10-13T10:05:57.226Z,70.50
2022-10-13T10:10:10.555Z,69.60
2022-10-13T10:12:04.821Z,68.20
2022-10-13T10:14:50.866Z,67.40
2022-10-13T10:17:41.771Z,67.30
2022-10-13T10:20:27.786Z,67.40
2022-10-13T10:23:24.402Z,68.00
2022-10-13T10:26:35.888Z,68.60
2022-10-13T10:29:39.571Z,69.00
2022-10-13T10:32:36.513Z,68.70
2022-10-13T10:35:29.999Z,68.50
2022-10-13T10:38:49.972Z,69.00
2022-10-13T10:41:29.240Z,69.10
2022-10-13T10:44:25.994Z,69.10
2022-10-13T10:47:07.592Z,69.30
2022-10-13T10:49:45.068Z,69.30
2022-10-13T10:52:46.143Z,69.00
2022-10-13T10:55:37.995Z,69.30
2022-10-13T11:02:08.170Z,69.50
2022-10-13T11:04:56.247Z,70.10
2022-10-13T11:07:32.732Z,70.30
2022-10-13T11:13:50.977Z,71.00
2022-10-13T11:16:45.873Z,71.20
2022-10-13T11:19:42.320Z,71.70
2022-10-13T11:22:21.549Z,72.10
2022-10-13T11:25:32.100Z,72.50
2022-10-13T11:28:27.814Z,73.40
2022-10-13T11:31:39.388Z,74.20
2022-10-13T11:34:30.170Z,74.80
2022-10-13T11:37:06.536Z,75.00
2022-10-13T11:40:01.556Z,74.90
2022-10-13T11:43:12.377Z,74.80
2022-10-13T11:46:24.430Z,75.00
2022-10-13T11:49:40.361Z,75.10
2022-10-13T11:52:29.810Z,75.30
2022-10-13T11:55:42.625Z,75.60
2022-10-13T11:58:35.060Z,75.50
2022-10-13T12:01:23.199Z,75.90
2022-10-13T12:04:37.543Z,76.10
2022-10-13T12:07:15.314Z,76.40
2022-10-13T12:09:59.841Z,76.40
2022-10-13T12:12:32.149Z,76.50
2022-10-13T12:15:22.824Z,76.30
2022-10-13T12:18:09.064Z,76.20
2022-10-13T12:20:44.699Z,75.70
2022-10-13T12:23:18.011Z,75.60
2022-10-13T12:28:56.021Z,74.90
2022-10-13T12:34:25.653Z,75.10
2022-10-13T12:37:21.594Z,75.00
2022-10-13T12:39:59.713Z,75.20
2022-10-13T12:42:42.109Z,75.70
2022-10-13T12:45:35.284Z,76.00
2022-10-13T12:48:33.742Z,75.90
2022-10-13T12:54:23.755Z,75.50
2022-10-13T12:57:03.592Z,75.40
2022-10-13T13:00:10.896Z,75.30
2022-10-13T13:02:50.563Z,75.40
2022-10-13T13:05:40.131Z,75.80
2022-10-13T13:08:36.407Z,76.00
2022-10-13T13:11:08.505Z,76.30
2022-10-13T13:13:37.482Z,76.60
2022-10-13T13:19:27.525Z,77.30
2022-10-13T13:21:56.458Z,77.60
2022-10-13T13:24:39.887Z,77.80
2022-10-13T13:27:41.593Z,78.00
2022-10-13T13:30:19.301Z,78.60
2022-10-13T13:32:54.846Z,79.00
2022-10-13T13:35:22.101Z,79.50
2022-10-13T13:37:55.892Z,79.70
2022-10-13T13:40:30.715Z,80.00
2022-10-13T13:43:02.125Z,80.20
2022-10-13T13:45:36.667Z,80.30
2022-10-13T13:48:23.361Z,80.40
2022-10-13T13:50:56.983Z,80.50
2022-10-13T13:53:25.202Z,80.50
2022-10-13T13:56:05.642Z,80.70
2022-10-13T13:58:36.962Z,80.60
2022-10-13T14:01:16.915Z,80.80
2022-10-13T14:03:45.605Z,81.30
2022-10-13T14:06:27.168Z,81.50
2022-10-13T14:12:06.247Z,81.80
2022-10-13T14:14:37.474Z,81.90
2022-10-13T14:17:07.415Z,82.00
2022-10-13T14:22:37.310Z,81.90
2022-10-13T14:25:06.737Z,82.10
2022-10-13T14:27:53.674Z,82.20
2022-10-13T14:30:24.488Z,82.50
2022-10-13T14:32:51.826Z,82.60
2022-10-13T14:35:19.683Z,82.60
2022-10-13T14:37:50.531Z,82.80
2022-10-13T14:40:20.334Z,83.00
2022-10-13T14:42:53.570Z,83.30
2022-10-13T14:45:25.280Z,83.60
2022-10-13T14:47:54.354Z,84.10
2022-10-13T14:50:25.673Z,84.40
2022-10-13T14:53:01.535Z,84.60
2022-10-13T14:55:34.793Z,84.90
2022-10-13T14:58:03.079Z,85.30
2022-10-13T15:00:41.957Z,85.50
2022-10-13T15:03:24.354Z,85.70
2022-10-13T15:05:56.885Z,86.00
2022-10-13T15:08:31.947Z,86.30
2022-10-13T15:11:11.415Z,86.50
2022-10-13T15:13:43.912Z,86.80
2022-10-13T15:16:22.244Z,87.50
2022-10-13T15:18:50.886Z,87.10
2022-10-13T15:21:25.099Z,87.30
2022-10-13T15:23:57.863Z,87.50
2022-10-13T15:26:38.887Z,88.00
2022-10-13T15:29:10.921Z,88.20
2022-10-13T15:31:41.569Z,88.30
2022-10-13T15:34:13.139Z,88.40
2022-10-13T15:36:43.716Z,88.40
2022-10-13T15:39:14.118Z,88.50
2022-10-13T15:41:42.089Z,88.60
2022-10-13T15:44:09.654Z,88.70
2022-10-13T15:47:05.535Z,88.80
2022-10-13T15:49:56.816Z,89.00
2022-10-13T15:52:35.129Z,89.10
2022-10-13T15:55:13.039Z,89.30
2022-10-13T15:57:41.054Z,89.50
2022-10-13T16:00:11.140Z,89.60
2022-10-13T16:02:41.097Z,89.70
2022-10-13T16:05:16.596Z,89.70
2022-10-13T16:07:53.880Z,89.90
2022-10-13T16:10:23.449Z,90.00
2022-10-13T16:12:57.855Z,90.10
2022-10-13T16:15:32.282Z,90.30
2022-10-13T16:18:03.099Z,90.20
2022-10-13T16:20:47.849Z,90.30
2022-10-13T16:26:14.481Z,90.60
2022-10-13T16:28:51.788Z,90.70
2022-10-13T16:31:24.228Z,90.80
2022-10-13T16:33:52.388Z,90.90
2022-10-13T16:36:45.082Z,91.10
2022-10-13T16:39:13.550Z,91.20
2022-10-13T16:41:43.509Z,91.30
2022-10-13T16:44:13.868Z,91.30
2022-10-13T16:46:43.431Z,91.40
2022-10-13T16:49:13.974Z,91.20
2022-10-13T16:51:44.038Z,91.30
2022-10-13T16:54:24.040Z,91.20
2022-10-13T16:56:53.890Z,91.20
2022-10-13T16:59:25.017Z,91.40
2022-10-13T17:01:53.398Z,91.30
2022-10-13T17:07:12.169Z,91.20
2022-10-13T17:09:39.651Z,91.30
2022-10-13T17:12:08.446Z,91.10
2022-10-13T17:14:36.417Z,91.20
2022-10-13T17:17:09.672Z,91.30
2022-10-13T17:19:37.508Z,91.20
2022-10-13T17:22:08.870Z,91.30
2022-10-13T17:24:42.067Z,91.20
2022-10-13T17:27:13.952Z,91.10
2022-10-13T17:29:46.308Z,91.20
2022-10-13T17:32:14.156Z,91.20
2022-10-13T17:34:43.911Z,91.20
2022-10-13T17:37:13.619Z,91.20
2022-10-13T17:39:42.111Z,91.00
2022-10-13T17:42:28.231Z,91.10
2022-10-13T17:44:59.665Z,91.00
2022-10-13T17:47:38.475Z,90.90
2022-10-13T17:50:09.520Z,90.80
2022-10-13T17:52:40.547Z,90.80
2022-10-13T17:55:08.434Z,90.90
2022-10-13T17:57:45.527Z,91.00
2022-10-13T18:00:15.818Z,91.00
2022-10-13T18:03:03.277Z,90.90
2022-10-13T18:05:53.715Z,90.80
2022-10-13T18:08:24.063Z,90.80
2022-10-13T18:11:07.745Z,90.80
2022-10-13T18:13:37.716Z,90.70
2022-10-13T18:16:16.230Z,90.80
2022-10-13T18:18:45.579Z,90.70
2022-10-13T18:21:15.848Z,90.50
2022-10-13T18:24:00.478Z,90.60
2022-10-13T18:26:41.010Z,90.50
2022-10-13T18:29:13.461Z,90.50
2022-10-13T18:31:49.850Z,90.60
2022-10-13T18:34:18.320Z,90.60
2022-10-13T18:36:53.092Z,90.60
2022-10-13T18:39:31.530Z,90.40
2022-10-13T18:42:18.882Z,90.40
2022-10-13T18:44:48.506Z,90.40
2022-10-13T18:47:19.319Z,90.40
2022-10-13T18:49:49.881Z,90.40
2022-10-13T18:52:19.046Z,90.40
2022-10-13T18:54:51.035Z,90.30
2022-10-13T18:57:32.006Z,90.40
2022-10-13T19:00:01.443Z,90.40
2022-10-13T19:02:32.117Z,90.50
2022-10-13T19:05:05.444Z,90.40
2022-10-13T19:07:39.105Z,90.40
2022-10-13T19:10:07.819Z,90.40
2022-10-13T19:12:38.026Z,90.30
2022-10-13T19:15:12.136Z,90.40
2022-10-13T19:17:45.951Z,90.40
2022-10-13T19:20:15.865Z,90.30
2022-10-13T19:22:45.913Z,90.40
2022-10-13T19:25:13.141Z,90.50
2022-10-13T19:27:43.592Z,90.60
2022-10-13T19:30:11.927Z,90.70
2022-10-13T19:32:40.284Z,90.60
2022-10-13T19:35:14.933Z,90.80
2022-10-13T19:37:47.102Z,90.80
2022-10-13T19:40:15.337Z,90.90
2022-10-13T19:42:45.774Z,91.00
2022-10-13T19:45:19.613Z,90.90
2022-10-13T19:47:50.092Z,90.90
2022-10-13T19:50:17.541Z,90.90
2022-10-13T19:52:44.803Z,90.90
2022-10-13T19:55:14.981Z,91.00
2022-10-13T19:57:42.438Z,91.00
2022-10-13T20:00:21.674Z,91.10
2022-10-13T20:02:49.127Z,91.20
2022-10-13T20:05:16.406Z,91.30
2022-10-13T20:07:46.268Z,91.20
2022-10-13T20:10:15.767Z,91.20
2022-10-13T20:12:52.691Z,91.30
2022-10-13T20:15:25.020Z,91.30
2022-10-13T20:17:52.066Z,91.30
2022-10-13T20:20:22.351Z,91.40
2022-10-13T20:22:49.902Z,91.40
2022-10-13T20:25:20.426Z,91.50
2022-10-13T20:27:47.740Z,91.50
2022-10-13T20:30:17.818Z,91.30
2022-10-13T20:32:45.473Z,91.40
2022-10-13T20:35:14.724Z,91.40
2022-10-13T20:37:42.054Z,91.40
2022-10-13T20:40:19.500Z,91.60
2022-10-13T20:42:54.716Z,91.40
2022-10-13T20:45:25.062Z,91.60
2022-10-13T20:47:52.376Z,91.50
2022-10-13T20:50:20.608Z,91.50
2022-10-13T20:52:59.463Z,91.50
2022-10-13T20:55:26.617Z,91.50
2022-10-13T20:57:55.773Z,91.60
2022-10-13T21:00:23.588Z,91.70
2022-10-13T21:02:52.971Z,91.70
2022-10-13T21:05:20.355Z,91.70
2022-10-13T21:07:56.657Z,91.60
2022-10-13T21:10:24.165Z,91.60
2022-10-13T21:12:53.449Z,91.60
2022-10-13T21:18:14.174Z,91.70
2022-10-13T21:20:42.267Z,91.70
2022-10-13T21:23:11.570Z,92.10
2022-10-13T21:25:41.860Z,92.00
2022-10-13T21:28:11.322Z,92.10
2022-10-13T21:30:44.582Z,92.10
2022-10-13T21:33:12.009Z,92.30
2022-10-13T21:35:42.837Z,92.20
2022-10-13T21:38:12.134Z,92.40
2022-10-13T21:40:42.379Z,92.40
2022-10-13T21:43:10.453Z,92.20
2022-10-13T21:45:39.504Z,92.20
2022-10-13T21:48:07.603Z,92.00
2022-10-13T21:50:50.269Z,92.20
2022-10-13T21:53:17.580Z,92.00
2022-10-13T21:55:51.719Z,92.10
2022-10-13T21:58:26.305Z,92.20
2022-10-13T22:01:02.875Z,92.20
2022-10-13T22:03:30.946Z,92.10
2022-10-13T22:05:58.630Z,91.90
2022-10-13T22:08:37.893Z,91.90
2022-10-13T22:11:06.484Z,91.80
2022-10-13T22:13:34.969Z,91.80
2022-10-13T22:16:22.391Z,91.80
2022-10-13T22:18:52.638Z,91.80
2022-10-13T22:21:23.711Z,91.80
2022-10-13T22:23:51.652Z,91.70
2022-10-13T22:26:21.759Z,91.80
2022-10-13T22:28:55.057Z,91.80
2022-10-13T22:31:22.937Z,92.00
2022-10-13T22:33:56.634Z,92.00
2022-10-13T22:36:33.855Z,91.90
2022-10-13T22:39:04.124Z,91.90
2022-10-13T22:41:42.250Z,91.70
2022-10-13T22:44:12.835Z,91.90
2022-10-13T22:46:40.750Z,92.00
2022-10-13T22:49:09.743Z,91.90
2022-10-13T22:51:37.715Z,91.80
2022-10-13T22:54:05.744Z,91.70
2022-10-13T22:56:34.912Z,91.80
2022-10-13T22:59:08.120Z,91.80
2022-10-13T23:01:38.922Z,91.70
2022-10-13T23:04:14.696Z,91.80
2022-10-13T23:06:45.323Z,92.00
2022-10-13T23:09:14.236Z,92.10
2022-10-13T23:11:48.522Z,92.00
2022-10-13T23:14:16.430Z,92.10
2022-10-13T23:16:44.656Z,92.10
2022-10-13T23:19:14.919Z,92.20
2022-10-13T23:21:50.754Z,92.30
2022-10-13T23:24:23.869Z,92.20
2022-10-13T23:26:51.071Z,92.20
2022-10-13T23:29:23.707Z,92.00
2022-10-13T23:31:51.108Z,92.00
2022-10-13T23:34:21.996Z,92.00
2022-10-13T23:36:49.367Z,92.10
2022-10-13T23:39:19.274Z,92.00
2022-10-13T23:41:47.092Z,92.00
2022-10-13T23:44:19.698Z,92.00
2022-10-13T23:46:56.223Z,92.00
2022-10-13T23:49:23.434Z,92.00
2022-10-13T23:51:57.585Z,92.10
2022-10-13T23:54:30.990Z,91.90
2022-10-13T23:57:03.641Z,92.00
2022-10-13T23:59:30.890Z,91.80
